Date,TemperatureHighF,TemperatureAvgF,TemperatureLowF,DewpointHighF,DewpointAvgF,DewpointLowF,HumidityHigh,HumidityAvg,HumidityLow,PressureMaxIn,PressureMinIn,WindSpeedMaxMPH,WindSpeedAvgMPH,GustSpeedMaxMPH,PrecipitationSumIn
2013-2-1,28,20,9,11,2,-3,61,46,33,0.00,40.00,19,5,21,0.00
2013-2-2,45,34,24,23,18,10,76,52,36,0.00,40.00,14,7,21,0.00
2013-2-3,37,32,25,30,22,14,91,67,42,0.00,40.00,24,5,27,0.00
2013-2-4,45,37,28,38,29,18,90,72,44,0.00,40.00,16,9,24,0.00
2013-2-5,55,40,26,37,29,24,92,70,37,0.00,40.00,12,4,17,0.00
2013-2-6,54,41,29,32,27,22,92,60,30,0.00,40.00,6,2,9,0.00
2013-2-7,64,50,33,52,38,26,91,64,40,0.00,40.00,12,5,18,0.00
2013-2-8,46,38,32,43,30,24,89,73,59,0.00,40.00,16,7,24,0.00
2013-2-9,47,38,31,32,24,22,73,59,38,0.00,40.00,12,4,14,0.00
2013-2-10,55,50,40,52,42,30,90,76,50,0.00,40.00,21,9,31,0.00
2013-2-11,54,45,30,50,24,18,89,47,27,0.00,40.00,18,7,25,0.00
2013-2-12,49,38,25,33,26,23,92,64,37,0.00,40.00,8,2,9,0.00
2013-2-13,50,40,33,37,32,27,93,75,42,0.00,40.00,12,5,17,0.00
2013-2-14,60,46,36,37,31,24,93,62,28,0.00,40.00,14,6,21,0.00
2013-2-15,45,37,24,32,22,11,82,55,34,0.00,40.00,21,5,26,0.00
2013-2-16,36,28,19,20,13,5,89,58,29,0.00,40.00,12,4,18,0.00
2013-2-17,47,32,16,20,16,10,90,55,31,0.00,40.00,14,5,21,0.00
2013-2-18,56,47,40,47,36,19,93,69,40,0.00,40.00,26,14,37,0.00
2013-2-19,42,35,27,35,15,6,79,46,25,0.00,40.00,21,8,25,0.00
2013-2-20,29,26,22,16,11,8,71,54,47,0.00,40.00,9,4,12,0.00
2013-2-21,33,28,23,31,21,15,92,76,59,0.00,40.00,12,4,21,0.00
2013-2-22,33,33,33,31,31,31,92,92,92,0.00,40.00,0,0,0,0.00
2013-2-23,43,32,22,26,21,18,90,66,40,0.00,40.00,9,2,12,0.00
2013-2-24,51,36,20,28,22,18,91,62,29,0.00,40.00,8,2,10,0.00
2013-2-25,53,42,29,28,25,23,87,55,33,0.00,40.00,18,7,25,0.00
2013-2-26,49,42,37,44,38,25,92,83,45,0.00,40.00,17,8,24,0.00
2013-2-27,39,36,32,33,28,24,88,73,54,0.00,40.00,17,6,21,0.00
2013-2-28,38,34,32,30,28,25,91,77,68,0.00,40.00,16,6,21,0.00